sensor_id;sensor_type;location;lat;lon;timestamp;pressure;altitude;pressure_sealevel;temperature;humidity
22031;BME280;11179;52.106;21.024;2023-06-22T00:00:52;100480.22;;;20.39;74.11
22031;BME280;11179;52.106;21.024;2023-06-22T00:03:19;100469.84;;;20.31;73.97
22031;BME280;11179;52.106;21.024;2023-06-22T00:05:48;100469.66;;;20.27;74.34
22031;BME280;11179;52.106;21.024;2023-06-22T00:08:14;100466.38;;;20.25;74.23
22031;BME280;11179;52.106;21.024;2023-06-22T00:10:40;100479.31;;;20.21;74.13
22031;BME280;11179;52.106;21.024;2023-06-22T00:13:06;100477.81;;;20.15;74.52
22031;BME280;11179;52.106;21.024;2023-06-22T00:15:32;100483.38;;;20.15;74.85
22031;BME280;11179;52.106;21.024;2023-06-22T00:17:58;100478.75;;;20.11;74.75
22031;BME280;11179;52.106;21.024;2023-06-22T00:20:24;100472.50;;;20.05;75.23
22031;BME280;11179;52.106;21.024;2023-06-22T00:22:57;100468.38;;;20.02;75.24
22031;BME280;11179;52.106;21.024;2023-06-22T00:25:22;100482.50;;;20.06;75.25
22031;BME280;11179;52.106;21.024;2023-06-22T00:27:48;100474.47;;;20.04;75.00
22031;BME280;11179;52.106;21.024;2023-06-22T00:30:15;100465.09;;;20.00;74.82
22031;BME280;11179;52.106;21.024;2023-06-22T00:32:41;100478.19;;;20.00;75.08
22031;BME280;11179;52.106;21.024;2023-06-22T00:35:07;100476.03;;;19.97;74.97
22031;BME280;11179;52.106;21.024;2023-06-22T00:37:32;100475.53;;;19.95;74.86
22031;BME280;11179;52.106;21.024;2023-06-22T00:39:57;100466.16;;;19.91;74.94
22031;BME280;11179;52.106;21.024;2023-06-22T00:42:23;100466.47;;;19.89;74.73
22031;BME280;11179;52.106;21.024;2023-06-22T00:44:48;100463.19;;;19.87;74.95
22031;BME280;11179;52.106;21.024;2023-06-22T00:47:17;100460.69;;;19.86;74.63
22031;BME280;11179;52.106;21.024;2023-06-22T00:49:43;100469.72;;;19.83;74.81
22031;BME280;11179;52.106;21.024;2023-06-22T00:52:10;100473.13;;;19.80;75.12
22031;BME280;11179;52.106;21.024;2023-06-22T00:54:40;100456.03;;;19.73;74.83
22031;BME280;11179;52.106;21.024;2023-06-22T00:57:09;100463.56;;;19.72;74.66
22031;BME280;11179;52.106;21.024;2023-06-22T00:59:36;100460.28;;;19.70;74.85
22031;BME280;11179;52.106;21.024;2023-06-22T01:02:02;100456.81;;;19.64;74.69
22031;BME280;11179;52.106;21.024;2023-06-22T01:04:35;100456.28;;;19.62;74.79
22031;BME280;11179;52.106;21.024;2023-06-22T01:09:58;100438.06;;;19.56;74.67
22031;BME280;11179;52.106;21.024;2023-06-22T01:12:26;100442.81;;;19.56;74.65
22031;BME280;11179;52.106;21.024;2023-06-22T01:15:02;100443.13;;;19.54;74.71
22031;BME280;11179;52.106;21.024;2023-06-22T01:17:31;100440.47;;;19.49;74.71
22031;BME280;11179;52.106;21.024;2023-06-22T01:19:58;100432.13;;;19.49;74.66
22031;BME280;11179;52.106;21.024;2023-06-22T01:22:28;100437.78;;;19.44;74.56
22031;BME280;11179;52.106;21.024;2023-06-22T01:25:10;100435.66;;;19.41;74.87
22031;BME280;11179;52.106;21.024;2023-06-22T01:27:53;100437.94;;;19.39;74.84
22031;BME280;11179;52.106;21.024;2023-06-22T01:30:23;100437.13;;;19.39;74.85
22031;BME280;11179;52.106;21.024;2023-06-22T01:33:01;100429.69;;;19.34;74.63
22031;BME280;11179;52.106;21.024;2023-06-22T01:35:28;100426.41;;;19.32;74.69
22031;BME280;11179;52.106;21.024;2023-06-22T01:37:55;100424.28;;;19.29;74.75
22031;BME280;11179;52.106;21.024;2023-06-22T01:40:21;100424.28;;;19.29;74.63
22031;BME280;11179;52.106;21.024;2023-06-22T01:42:47;100420.97;;;19.27;74.59
22031;BME280;11179;52.106;21.024;2023-06-22T01:45:13;100421.09;;;19.22;74.53
22031;BME280;11179;52.106;21.024;2023-06-22T01:47:40;100433.88;;;19.23;74.55
22031;BME280;11179;52.106;21.024;2023-06-22T01:50:06;100433.88;;;19.23;74.39
22031;BME280;11179;52.106;21.024;2023-06-22T01:52:32;100434.50;;;19.20;74.80
22031;BME280;11179;52.106;21.024;2023-06-22T01:54:59;100443.34;;;19.22;74.46
22031;BME280;11179;52.106;21.024;2023-06-22T01:57:25;100438.41;;;19.19;74.69
22031;BME280;11179;52.106;21.024;2023-06-22T02:00:04;100451.19;;;19.20;75.08
22031;BME280;11179;52.106;21.024;2023-06-22T02:02:54;100455.63;;;19.21;74.82
22031;BME280;11179;52.106;21.024;2023-06-22T02:05:23;100463.97;;;19.21;74.88
22031;BME280;11179;52.106;21.024;2023-06-22T02:08:03;100469.53;;;19.21;74.83
22031;BME280;11179;52.106;21.024;2023-06-22T02:10:32;100470.38;;;19.21;74.79
22031;BME280;11179;52.106;21.024;2023-06-22T02:13:01;100478.91;;;19.25;74.83
22031;BME280;11179;52.106;21.024;2023-06-22T02:15:28;100483.56;;;19.29;74.96
22031;BME280;11179;52.106;21.024;2023-06-22T02:17:53;100478.81;;;19.30;74.97
22031;BME280;11179;52.106;21.024;2023-06-22T02:20:18;100483.34;;;19.26;75.17
22031;BME280;11179;52.106;21.024;2023-06-22T02:22:45;100499.81;;;19.36;75.04
22031;BME280;11179;52.106;21.024;2023-06-22T02:25:10;100504.44;;;19.41;75.34
22031;BME280;11179;52.106;21.024;2023-06-22T02:27:36;100504.13;;;19.42;75.64
22031;BME280;11179;52.106;21.024;2023-06-22T02:30:01;100497.91;;;19.45;75.71
22031;BME280;11179;52.106;21.024;2023-06-22T02:32:27;100495.34;;;19.49;75.90
22031;BME280;11179;52.106;21.024;2023-06-22T02:34:52;100495.22;;;19.54;75.73
22031;BME280;11179;52.106;21.024;2023-06-22T02:37:18;100496.22;;;19.58;75.78
22031;BME280;11179;52.106;21.024;2023-06-22T02:39:43;100497.56;;;19.60;75.63
22031;BME280;11179;52.106;21.024;2023-06-22T02:42:08;100510.88;;;19.63;76.01
22031;BME280;11179;52.106;21.024;2023-06-22T02:44:36;100508.28;;;19.67;75.92
22031;BME280;11179;52.106;21.024;2023-06-22T02:47:01;100508.78;;;19.69;76.19
22031;BME280;11179;52.106;21.024;2023-06-22T02:49:26;100506.16;;;19.73;76.50
22031;BME280;11179;52.106;21.024;2023-06-22T02:51:52;100509.16;;;19.76;76.66
22031;BME280;11179;52.106;21.024;2023-06-22T02:54:18;100520.59;;;19.75;76.55
22031;BME280;11179;52.106;21.024;2023-06-22T02:56:43;100524.94;;;19.81;76.68
22031;BME280;11179;52.106;21.024;2023-06-22T02:59:10;100521.31;;;19.80;76.85
22031;BME280;11179;52.106;21.024;2023-06-22T03:01:36;100526.59;;;19.82;77.09
22031;BME280;11179;52.106;21.024;2023-06-22T03:04:08;100527.09;;;19.84;77.15
22031;BME280;11179;52.106;21.024;2023-06-22T03:06:34;100538.72;;;19.86;77.26
22031;BME280;11179;52.106;21.024;2023-06-22T03:09:02;100532.00;;;19.87;77.34
22031;BME280;11179;52.106;21.024;2023-06-22T03:11:29;100534.47;;;19.88;77.84
22031;BME280;11179;52.106;21.024;2023-06-22T03:13:55;100540.25;;;19.92;77.86
22031;BME280;11179;52.106;21.024;2023-06-22T03:16:20;100535.19;;;19.94;78.17
22031;BME280;11179;52.106;21.024;2023-06-22T03:18:45;100536.19;;;19.98;78.28
22031;BME280;11179;52.106;21.024;2023-06-22T03:21:11;100546.75;;;20.01;78.34
22031;BME280;11179;52.106;21.024;2023-06-22T03:23:36;100549.00;;;19.99;78.55
22031;BME280;11179;52.106;21.024;2023-06-22T03:26:02;100543.94;;;20.01;78.76
22031;BME280;11179;52.106;21.024;2023-06-22T03:28:29;100542.31;;;20.00;78.60
22031;BME280;11179;52.106;21.024;2023-06-22T03:30:57;100555.81;;;20.07;79.12
22031;BME280;11179;52.106;21.024;2023-06-22T03:33:22;100553.03;;;20.07;78.93
22031;BME280;11179;52.106;21.024;2023-06-22T03:35:47;100540.22;;;20.06;79.20
22031;BME280;11179;52.106;21.024;2023-06-22T03:38:13;100538.78;;;20.08;79.33
22031;BME280;11179;52.106;21.024;2023-06-22T03:40:38;100557.47;;;20.08;79.87
22031;BME280;11179;52.106;21.024;2023-06-22T03:43:03;100556.31;;;20.09;79.89
22031;BME280;11179;52.106;21.024;2023-06-22T03:45:28;100559.78;;;20.14;80.13
22031;BME280;11179;52.106;21.024;2023-06-22T03:47:54;100562.13;;;20.21;79.93
22031;BME280;11179;52.106;21.024;2023-06-22T03:50:19;100563.94;;;20.25;79.50
22031;BME280;11179;52.106;21.024;2023-06-22T03:52:46;100568.25;;;20.31;79.65
22031;BME280;11179;52.106;21.024;2023-06-22T03:55:11;100572.19;;;20.30;79.68
22031;BME280;11179;52.106;21.024;2023-06-22T03:57:36;100570.41;;;20.34;79.58
22031;BME280;11179;52.106;21.024;2023-06-22T04:00:02;100576.50;;;20.36;79.84
22031;BME280;11179;52.106;21.024;2023-06-22T04:02:30;100579.31;;;20.36;79.49
22031;BME280;11179;52.106;21.024;2023-06-22T04:04:56;100589.47;;;20.41;79.56
22031;BME280;11179;52.106;21.024;2023-06-22T04:07:21;100586.56;;;20.46;79.77
22031;BME280;11179;52.106;21.024;2023-06-22T04:09:46;100586.41;;;20.51;79.62
22031;BME280;11179;52.106;21.024;2023-06-22T04:12:12;100590.22;;;20.55;79.64
22031;BME280;11179;52.106;21.024;2023-06-22T04:14:37;100570.69;;;20.55;79.29
22031;BME280;11179;52.106;21.024;2023-06-22T04:17:02;100581.56;;;20.65;79.14
22031;BME280;11179;52.106;21.024;2023-06-22T04:19:28;100581.25;;;20.67;79.18
22031;BME280;11179;52.106;21.024;2023-06-22T04:21:53;100590.19;;;20.78;79.08
22031;BME280;11179;52.106;21.024;2023-06-22T04:24:18;100594.31;;;20.80;78.83
22031;BME280;11179;52.106;21.024;2023-06-22T04:26:44;100586.63;;;20.86;78.26
22031;BME280;11179;52.106;21.024;2023-06-22T04:29:10;100586.81;;;20.89;78.43
22031;BME280;11179;52.106;21.024;2023-06-22T04:31:36;100580.22;;;20.85;78.28
22031;BME280;11179;52.106;21.024;2023-06-22T04:34:03;100593.13;;;21.03;78.05
22031;BME280;11179;52.106;21.024;2023-06-22T04:36:35;100591.00;;;21.18;77.69
22031;BME280;11179;52.106;21.024;2023-06-22T04:39:11;100598.41;;;21.22;77.32
22031;BME280;11179;52.106;21.024;2023-06-22T04:41:37;100603.53;;;21.29;77.16
22031;BME280;11179;52.106;21.024;2023-06-22T04:44:12;100602.72;;;21.37;77.15
22031;BME280;11179;52.106;21.024;2023-06-22T04:46:38;100598.16;;;21.41;76.82
22031;BME280;11179;52.106;21.024;2023-06-22T04:49:08;100591.88;;;21.44;76.49
22031;BME280;11179;52.106;21.024;2023-06-22T04:51:39;100591.41;;;21.42;76.29
22031;BME280;11179;52.106;21.024;2023-06-22T04:54:04;100596.00;;;21.46;76.02
22031;BME280;11179;52.106;21.024;2023-06-22T04:56:31;100591.94;;;21.53;75.97
22031;BME280;11179;52.106;21.024;2023-06-22T04:58:56;100586.53;;;21.56;75.88
22031;BME280;11179;52.106;21.024;2023-06-22T05:01:22;100607.41;;;21.67;75.72
22031;BME280;11179;52.106;21.024;2023-06-22T05:03:48;100592.94;;;21.65;75.18
22031;BME280;11179;52.106;21.024;2023-06-22T05:06:13;100604.13;;;21.74;75.05
22031;BME280;11179;52.106;21.024;2023-06-22T05:08:40;100586.38;;;21.78;75.26
22031;BME280;11179;52.106;21.024;2023-06-22T05:11:05;100597.38;;;21.84;74.75
22031;BME280;11179;52.106;21.024;2023-06-22T05:13:31;100592.28;;;21.86;74.50
22031;BME280;11179;52.106;21.024;2023-06-22T05:15:56;100597.72;;;21.91;74.33
22031;BME280;11179;52.106;21.024;2023-06-22T05:18:30;100598.88;;;21.90;74.29
22031;BME280;11179;52.106;21.024;2023-06-22T05:20:55;100590.16;;;21.91;74.09
22031;BME280;11179;52.106;21.024;2023-06-22T05:23:20;100599.56;;;21.95;73.50
22031;BME280;11179;52.106;21.024;2023-06-22T05:25:46;100598.72;;;21.95;73.50
22031;BME280;11179;52.106;21.024;2023-06-22T05:28:11;100608.91;;;21.99;73.28
22031;BME280;11179;52.106;21.024;2023-06-22T05:30:37;100603.50;;;21.94;72.95
22031;BME280;11179;52.106;21.024;2023-06-22T05:33:03;100614.34;;;21.96;72.86
22031;BME280;11179;52.106;21.024;2023-06-22T05:35:28;100618.28;;;22.03;72.95
22031;BME280;11179;52.106;21.024;2023-06-22T05:37:54;100626.34;;;22.13;72.80
22031;BME280;11179;52.106;21.024;2023-06-22T05:40:20;100629.78;;;22.19;72.30
22031;BME280;11179;52.106;21.024;2023-06-22T05:42:45;100619.75;;;22.18;71.76
22031;BME280;11179;52.106;21.024;2023-06-22T05:45:11;100626.19;;;22.19;71.88
22031;BME280;11179;52.106;21.024;2023-06-22T05:47:36;100625.69;;;22.25;71.71
22031;BME280;11179;52.106;21.024;2023-06-22T05:50:01;100622.25;;;22.28;71.50
22031;BME280;11179;52.106;21.024;2023-06-22T05:52:31;100630.97;;;22.35;71.14
22031;BME280;11179;52.106;21.024;2023-06-22T05:54:56;100613.03;;;22.36;70.77
22031;BME280;11179;52.106;21.024;2023-06-22T05:57:22;100636.56;;;22.35;70.82
22031;BME280;11179;52.106;21.024;2023-06-22T05:59:47;100637.03;;;22.37;70.70
22031;BME280;11179;52.106;21.024;2023-06-22T06:02:12;100635.06;;;22.38;70.90
22031;BME280;11179;52.106;21.024;2023-06-22T06:04:38;100637.03;;;22.37;70.59
22031;BME280;11179;52.106;21.024;2023-06-22T06:07:03;100641.47;;;22.38;70.52
22031;BME280;11179;52.106;21.024;2023-06-22T06:09:29;100647.75;;;22.44;70.36
22031;BME280;11179;52.106;21.024;2023-06-22T06:11:54;100642.31;;;22.47;69.93
22031;BME280;11179;52.106;21.024;2023-06-22T06:14:19;100638.03;;;22.50;70.03
22031;BME280;11179;52.106;21.024;2023-06-22T06:16:45;100649.84;;;22.56;69.73
22031;BME280;11179;52.106;21.024;2023-06-22T06:19:10;100651.16;;;22.67;69.50
22031;BME280;11179;52.106;21.024;2023-06-22T06:21:36;100656.75;;;22.75;69.31
22031;BME280;11179;52.106;21.024;2023-06-22T06:24:01;100658.03;;;22.78;69.20
22031;BME280;11179;52.106;21.024;2023-06-22T06:26:26;100662.63;;;22.82;68.82
22031;BME280;11179;52.106;21.024;2023-06-22T06:28:59;100656.03;;;22.87;69.09
22031;BME280;11179;52.106;21.024;2023-06-22T06:31:25;100659.50;;;22.84;68.79
22031;BME280;11179;52.106;21.024;2023-06-22T06:33:53;100660.31;;;22.93;68.71
22031;BME280;11179;52.106;21.024;2023-06-22T06:36:19;100652.38;;;23.04;68.03
22031;BME280;11179;52.106;21.024;2023-06-22T06:38:44;100652.50;;;23.16;67.67
22031;BME280;11179;52.106;21.024;2023-06-22T06:41:12;100639.78;;;23.27;67.13
22031;BME280;11179;52.106;21.024;2023-06-22T06:43:37;100646.91;;;23.45;66.70
22031;BME280;11179;52.106;21.024;2023-06-22T06:46:03;100653.44;;;23.58;66.49
22031;BME280;11179;52.106;21.024;2023-06-22T06:48:28;100651.22;;;23.72;66.15
22031;BME280;11179;52.106;21.024;2023-06-22T06:50:53;100666.47;;;23.83;66.00
22031;BME280;11179;52.106;21.024;2023-06-22T06:53:19;100656.31;;;23.79;66.05
22031;BME280;11179;52.106;21.024;2023-06-22T06:55:44;100655.56;;;23.90;65.71
22031;BME280;11179;52.106;21.024;2023-06-22T06:58:10;100655.91;;;24.10;65.55
22031;BME280;11179;52.106;21.024;2023-06-22T07:00:38;100646.69;;;24.30;64.93
22031;BME280;11179;52.106;21.024;2023-06-22T07:03:04;100642.88;;;24.80;64.00
22031;BME280;11179;52.106;21.024;2023-06-22T07:05:29;100648.22;;;25.18;63.06
22031;BME280;11179;52.106;21.024;2023-06-22T07:07:54;100640.97;;;25.41;61.63
22031;BME280;11179;52.106;21.024;2023-06-22T07:10:20;100647.09;;;25.67;60.95
22031;BME280;11179;52.106;21.024;2023-06-22T07:12:45;100650.09;;;25.87;60.21
22031;BME280;11179;52.106;21.024;2023-06-22T07:15:11;100646.53;;;26.02;59.86
22031;BME280;11179;52.106;21.024;2023-06-22T07:17:38;100641.06;;;26.33;59.40
22031;BME280;11179;52.106;21.024;2023-06-22T07:20:07;100634.50;;;27.01;58.48
22031;BME280;11179;52.106;21.024;2023-06-22T07:22:41;100647.03;;;27.66;56.32
22031;BME280;11179;52.106;21.024;2023-06-22T07:25:07;100645.34;;;28.16;54.64
22031;BME280;11179;52.106;21.024;2023-06-22T07:27:44;100646.31;;;28.62;52.75
22031;BME280;11179;52.106;21.024;2023-06-22T07:30:11;100651.56;;;29.06;52.03
22031;BME280;11179;52.106;21.024;2023-06-22T07:32:37;100657.19;;;29.25;51.06
22031;BME280;11179;52.106;21.024;2023-06-22T07:35:02;100662.66;;;29.14;51.21
22031;BME280;11179;52.106;21.024;2023-06-22T07:37:28;100655.19;;;29.52;50.23
22031;BME280;11179;52.106;21.024;2023-06-22T07:39:54;100654.38;;;30.04;48.42
22031;BME280;11179;52.106;21.024;2023-06-22T07:42:26;100656.63;;;30.51;47.11
22031;BME280;11179;52.106;21.024;2023-06-22T07:44:52;100659.59;;;30.62;46.43
22031;BME280;11179;52.106;21.024;2023-06-22T07:47:18;100651.09;;;30.62;46.22
22031;BME280;11179;52.106;21.024;2023-06-22T07:49:45;100665.03;;;30.78;45.22
22031;BME280;11179;52.106;21.024;2023-06-22T07:52:10;100655.19;;;31.02;44.39
22031;BME280;11179;52.106;21.024;2023-06-22T07:54:36;100652.41;;;31.09;43.62
22031;BME280;11179;52.106;21.024;2023-06-22T07:57:01;100661.50;;;31.25;43.62
22031;BME280;11179;52.106;21.024;2023-06-22T07:59:26;100669.69;;;31.37;42.75
22031;BME280;11179;52.106;21.024;2023-06-22T08:01:52;100675.91;;;31.53;42.39
22031;BME280;11179;52.106;21.024;2023-06-22T08:04:17;100663.38;;;31.54;42.51
22031;BME280;11179;52.106;21.024;2023-06-22T08:06:42;100665.28;;;31.94;41.33
22031;BME280;11179;52.106;21.024;2023-06-22T08:09:08;100659.00;;;32.37;39.69
22031;BME280;11179;52.106;21.024;2023-06-22T08:11:34;100655.47;;;32.72;39.42
22031;BME280;11179;52.106;21.024;2023-06-22T08:13:59;100660.03;;;32.97;39.06
22031;BME280;11179;52.106;21.024;2023-06-22T08:16:24;100667.28;;;32.77;38.78
22031;BME280;11179;52.106;21.024;2023-06-22T08:18:50;100659.00;;;32.37;38.99
22031;BME280;11179;52.106;21.024;2023-06-22T08:21:15;100653.31;;;32.29;39.46
22031;BME280;11179;52.106;21.024;2023-06-22T08:23:40;100652.22;;;32.70;38.87
22031;BME280;11179;52.106;21.024;2023-06-22T08:26:06;100662.44;;;33.02;38.49
22031;BME280;11179;52.106;21.024;2023-06-22T08:28:31;100648.66;;;33.12;37.24
22031;BME280;11179;52.106;21.024;2023-06-22T08:30:57;100656.78;;;33.06;36.83
22031;BME280;11179;52.106;21.024;2023-06-22T08:33:22;100655.19;;;33.30;36.28
22031;BME280;11179;52.106;21.024;2023-06-22T08:35:54;100647.44;;;33.23;36.68
22031;BME280;11179;52.106;21.024;2023-06-22T08:38:20;100652.75;;;33.39;36.82
22031;BME280;11179;52.106;21.024;2023-06-22T08:40:45;100649.88;;;33.43;36.74
22031;BME280;11179;52.106;21.024;2023-06-22T08:43:10;100645.41;;;33.24;35.98
22031;BME280;11179;52.106;21.024;2023-06-22T08:45:36;100643.78;;;33.19;35.82
22031;BME280;11179;52.106;21.024;2023-06-22T08:48:02;100644.16;;;32.86;36.19
22031;BME280;11179;52.106;21.024;2023-06-22T08:50:27;100644.59;;;33.13;35.92
22031;BME280;11179;52.106;21.024;2023-06-22T08:52:52;100646.25;;;33.31;34.73
22031;BME280;11179;52.106;21.024;2023-06-22T08:55:18;100653.56;;;33.50;34.21
22031;BME280;11179;52.106;21.024;2023-06-22T08:57:43;100651.91;;;33.56;34.19
22031;BME280;11179;52.106;21.024;2023-06-22T09:00:09;100653.13;;;33.84;34.37
22031;BME280;11179;52.106;21.024;2023-06-22T09:02:48;100652.25;;;34.01;33.66
22031;BME280;11179;52.106;21.024;2023-06-22T09:05:14;100657.16;;;34.04;33.40
22031;BME280;11179;52.106;21.024;2023-06-22T09:07:39;100661.56;;;34.23;32.86
22031;BME280;11179;52.106;21.024;2023-06-22T09:10:05;100664.81;;;34.32;32.05
22031;BME280;11179;52.106;21.024;2023-06-22T09:12:31;100665.25;;;34.16;32.82
22031;BME280;11179;52.106;21.024;2023-06-22T09:14:58;100664.47;;;34.01;32.47
22031;BME280;11179;52.106;21.024;2023-06-22T09:17:25;100667.72;;;34.03;32.26
22031;BME280;11179;52.106;21.024;2023-06-22T09:19:50;100653.13;;;33.87;32.26
22031;BME280;11179;52.106;21.024;2023-06-22T09:22:16;100658.03;;;33.80;32.55
22031;BME280;11179;52.106;21.024;2023-06-22T09:24:41;100657.63;;;33.63;32.18
22031;BME280;11179;52.106;21.024;2023-06-22T09:27:06;100650.31;;;33.30;32.66
22031;BME280;11179;52.106;21.024;2023-06-22T09:29:32;100651.53;;;33.47;32.41
22031;BME280;11179;52.106;21.024;2023-06-22T09:31:59;100657.63;;;33.49;31.79
22031;BME280;11179;52.106;21.024;2023-06-22T09:34:24;100655.19;;;33.65;31.42
22031;BME280;11179;52.106;21.024;2023-06-22T09:36:50;100638.06;;;33.87;31.26
22031;BME280;11179;52.106;21.024;2023-06-22T09:39:15;100640.06;;;34.04;30.72
22031;BME280;11179;52.106;21.024;2023-06-22T09:41:40;100636.38;;;34.07;30.30
22031;BME280;11179;52.106;21.024;2023-06-22T09:44:06;100641.28;;;33.99;30.30
22031;BME280;11179;52.106;21.024;2023-06-22T09:46:31;100641.34;;;33.78;29.71
22031;BME280;11179;52.106;21.024;2023-06-22T09:48:56;100635.66;;;33.67;30.66
22031;BME280;11179;52.106;21.024;2023-06-22T09:51:22;100648.25;;;33.56;30.74
22031;BME280;11179;52.106;21.024;2023-06-22T09:53:51;100644.19;;;33.67;30.10
22031;BME280;11179;52.106;21.024;2023-06-22T09:56:18;100640.50;;;33.74;30.71
22031;BME280;11179;52.106;21.024;2023-06-22T09:58:44;100642.16;;;33.79;30.85
22031;BME280;11179;52.106;21.024;2023-06-22T10:01:11;100639.28;;;33.86;30.38
22031;BME280;11179;52.106;21.024;2023-06-22T10:03:37;100640.50;;;33.92;30.39
22031;BME280;11179;52.106;21.024;2023-06-22T10:06:02;100648.19;;;34.02;30.21
22031;BME280;11179;52.106;21.024;2023-06-22T10:08:28;100642.94;;;33.93;29.11
22031;BME280;11179;52.106;21.024;2023-06-22T10:10:53;100646.19;;;33.85;29.67
22031;BME280;11179;52.106;21.024;2023-06-22T10:13:18;100642.13;;;33.86;29.27
22031;BME280;11179;52.106;21.024;2023-06-22T10:15:44;100639.31;;;33.79;29.67
22031;BME280;11179;52.106;21.024;2023-06-22T10:18:15;100639.69;;;33.84;29.64
22031;BME280;11179;52.106;21.024;2023-06-22T10:20:41;100643.34;;;33.95;30.21
22031;BME280;11179;52.106;21.024;2023-06-22T10:23:06;100642.53;;;33.88;29.80
22031;BME280;11179;52.106;21.024;2023-06-22T10:25:31;100639.69;;;33.84;29.97
22031;BME280;11179;52.106;21.024;2023-06-22T10:27:57;100642.94;;;33.86;29.91
22031;BME280;11179;52.106;21.024;2023-06-22T10:30:22;100644.56;;;33.84;30.18
22031;BME280;11179;52.106;21.024;2023-06-22T10:32:48;100642.16;;;33.22;30.97
22031;BME280;11179;52.106;21.024;2023-06-22T10:35:14;100636.88;;;33.10;31.02
22031;BME280;11179;52.106;21.024;2023-06-22T10:37:44;100628.34;;;33.24;31.40
22031;BME280;11179;52.106;21.024;2023-06-22T10:40:13;100621.06;;;33.41;31.01
22031;BME280;11179;52.106;21.024;2023-06-22T10:42:40;100632.41;;;33.44;30.70
22031;BME280;11179;52.106;21.024;2023-06-22T10:45:06;100625.91;;;33.36;30.74
22031;BME280;11179;52.106;21.024;2023-06-22T10:47:32;100632.84;;;33.28;31.36
22031;BME280;11179;52.106;21.024;2023-06-22T10:49:57;100623.88;;;33.33;31.66
22031;BME280;11179;52.106;21.024;2023-06-22T10:52:22;100625.50;;;33.31;31.82
22031;BME280;11179;52.106;21.024;2023-06-22T10:54:47;100621.41;;;33.07;31.92
22031;BME280;11179;52.106;21.024;2023-06-22T10:57:13;100616.97;;;33.13;32.63
22031;BME280;11179;52.106;21.024;2023-06-22T10:59:39;100616.94;;;33.17;32.55
22031;BME280;11179;52.106;21.024;2023-06-22T11:02:04;100605.19;;;33.15;32.13
22031;BME280;11179;52.106;21.024;2023-06-22T11:04:30;100600.31;;;33.12;32.25
22031;BME280;11179;52.106;21.024;2023-06-22T11:06:55;100601.50;;;33.18;31.94
22031;BME280;11179;52.106;21.024;2023-06-22T11:09:21;100603.94;;;33.19;31.68
22031;BME280;11179;52.106;21.024;2023-06-22T11:11:50;100588.09;;;32.90;32.02
22031;BME280;11179;52.106;21.024;2023-06-22T11:14:15;100603.94;;;32.94;33.07
22031;BME280;11179;52.106;21.024;2023-06-22T11:16:41;100592.56;;;33.09;32.49
22031;BME280;11179;52.106;21.024;2023-06-22T11:19:06;100607.19;;;32.89;32.66
22031;BME280;11179;52.106;21.024;2023-06-22T11:21:31;100599.88;;;32.85;32.51
22031;BME280;11179;52.106;21.024;2023-06-22T11:23:57;100603.94;;;32.94;32.88
22031;BME280;11179;52.106;21.024;2023-06-22T11:26:23;100590.13;;;32.96;32.87
22031;BME280;11179;52.106;21.024;2023-06-22T11:28:51;100605.19;;;33.00;32.30
22031;BME280;11179;52.106;21.024;2023-06-22T11:31:17;100587.69;;;32.91;31.87
22031;BME280;11179;52.106;21.024;2023-06-22T11:33:42;100596.63;;;32.86;32.38
22031;BME280;11179;52.106;21.024;2023-06-22T11:36:07;100595.00;;;32.92;32.93
22031;BME280;11179;52.106;21.024;2023-06-22T11:38:33;100598.25;;;32.94;32.60
22031;BME280;11179;52.106;21.024;2023-06-22T11:40:58;100587.69;;;32.88;32.61
22031;BME280;11179;52.106;21.024;2023-06-22T11:43:24;100593.38;;;32.84;32.14
22031;BME280;11179;52.106;21.024;2023-06-22T11:45:50;100593.78;;;32.79;32.26
22031;BME280;11179;52.106;21.024;2023-06-22T11:48:15;100592.50;;;32.70;32.71
22031;BME280;11179;52.106;21.024;2023-06-22T11:50:41;100593.28;;;32.52;32.67
22031;BME280;11179;52.106;21.024;2023-06-22T11:53:06;100593.28;;;32.45;32.06
22031;BME280;11179;52.106;21.024;2023-06-22T11:55:31;100597.31;;;32.34;32.01
22031;BME280;11179;52.106;21.024;2023-06-22T11:57:57;100592.34;;;32.23;32.11
22031;BME280;11179;52.106;21.024;2023-06-22T12:00:26;100591.97;;;32.21;32.43
22031;BME280;11179;52.106;21.024;2023-06-22T12:02:51;100591.50;;;32.12;32.33
22031;BME280;11179;52.106;21.024;2023-06-22T12:05:20;100591.50;;;32.12;33.01
22031;BME280;11179;52.106;21.024;2023-06-22T12:07:50;100595.19;;;32.20;32.99
22031;BME280;11179;52.106;21.024;2023-06-22T12:10:15;100589.06;;;32.11;33.16
22031;BME280;11179;52.106;21.024;2023-06-22T12:12:41;100586.56;;;31.98;32.92
22031;BME280;11179;52.106;21.024;2023-06-22T12:15:08;100593.72;;;31.75;32.98
22031;BME280;11179;52.106;21.024;2023-06-22T12:17:34;100591.25;;;31.70;33.19
22031;BME280;11179;52.106;21.024;2023-06-22T12:19:59;100583.97;;;31.69;32.83
22031;BME280;11179;52.106;21.024;2023-06-22T12:22:25;100591.69;;;31.68;32.76
22031;BME280;11179;52.106;21.024;2023-06-22T12:24:50;100581.38;;;31.46;32.84
22031;BME280;11179;52.106;21.024;2023-06-22T12:27:17;100574.88;;;31.38;33.63
22031;BME280;11179;52.106;21.024;2023-06-22T12:29:44;100566.78;;;31.44;33.62
22031;BME280;11179;52.106;21.024;2023-06-22T12:32:10;100568.88;;;31.50;33.54
22031;BME280;11179;52.106;21.024;2023-06-22T12:34:37;100573.31;;;31.48;33.66
22031;BME280;11179;52.106;21.024;2023-06-22T12:37:04;100573.25;;;31.37;33.78
22031;BME280;11179;52.106;21.024;2023-06-22T12:39:31;100565.91;;;31.33;33.85